createdAt,value
2022-11-23T00:04:53.184Z,95.6
2022-11-23T00:10:43.492Z,95.6
2022-11-23T00:16:35.142Z,96.4
2022-11-23T00:22:26.020Z,97
2022-11-23T00:28:20.614Z,96.5
2022-11-23T00:34:22.692Z,96.6
2022-11-23T00:40:14.154Z,97.4
2022-11-23T00:46:14.869Z,98.2
2022-11-23T00:52:10.757Z,98.7
2022-11-23T00:58:01.503Z,99
2022-11-23T01:03:55.814Z,99.4
2022-11-23T01:10:07.439Z,99.7
2022-11-23T01:16:06.152Z,99.9
2022-11-23T01:21:59.979Z,100
2022-11-23T01:27:52.507Z,100
2022-11-23T01:33:52.674Z,100
2022-11-23T01:39:46.227Z,100
2022-11-23T01:45:51.420Z,100
2022-11-23T01:51:46.430Z,100
2022-11-23T01:57:39.405Z,100
2022-11-23T02:03:36.470Z,100
2022-11-23T02:09:27.544Z,100
2022-11-23T02:15:33.477Z,100
2022-11-23T02:21:23.443Z,100
2022-11-23T02:27:14.833Z,100
2022-11-23T02:33:19.932Z,100
2022-11-23T02:39:13.578Z,100
2022-11-23T02:45:11.929Z,100
2022-11-23T02:51:06.959Z,100
2022-11-23T02:57:02.609Z,100
2022-11-23T03:03:07.731Z,100
2022-11-23T03:09:01.819Z,100
2022-11-23T03:15:04.833Z,100
2022-11-23T03:20:58.431Z,100
2022-11-23T03:26:52.055Z,100
2022-11-23T03:32:58.117Z,100
2022-11-23T03:39:01.747Z,100
2022-11-23T03:45:09.565Z,100
2022-11-23T03:51:31.947Z,100
2022-11-23T03:57:23.819Z,100
2022-11-23T04:03:16.698Z,100
2022-11-23T04:09:13.495Z,100
2022-11-23T04:15:04.960Z,100
2022-11-23T04:21:08.854Z,100
2022-11-23T04:27:07.237Z,100
2022-11-23T04:39:13.777Z,100
2022-11-23T04:45:17.115Z,100
2022-11-23T04:51:24.327Z,100
2022-11-23T04:57:13.621Z,100
2022-11-23T05:03:05.224Z,100
2022-11-23T05:08:57.810Z,100
2022-11-23T05:14:53.424Z,100
2022-11-23T05:20:47.705Z,100
2022-11-23T05:26:39.807Z,100
2022-11-23T05:32:47.788Z,100
2022-11-23T05:38:42.313Z,100
2022-11-23T05:44:47.731Z,100
2022-11-23T05:50:49.565Z,100
2022-11-23T05:56:42.718Z,100
2022-11-23T06:02:47.855Z,100
2022-11-23T06:08:44.465Z,100
2022-11-23T06:14:56.658Z,100
2022-11-23T06:27:25.789Z,100
2022-11-23T06:33:35.809Z,100
2022-11-23T06:39:36.043Z,100
2022-11-23T06:51:52.393Z,100
2022-11-23T06:58:18.680Z,100
2022-11-23T07:04:30.662Z,100
2022-11-23T07:10:54.241Z,100
2022-11-23T07:17:26.483Z,100
2022-11-23T07:23:31.488Z,100
2022-11-23T07:29:45.396Z,100
2022-11-23T07:35:40.969Z,100
2022-11-23T07:41:35.369Z,100
2022-11-23T07:54:22.223Z,100
2022-11-23T08:00:19.846Z,99.8
2022-11-23T08:12:52.877Z,99.5
2022-11-23T08:18:56.854Z,99.5
2022-11-23T08:25:01.493Z,98.4
2022-11-23T08:30:53.162Z,98
2022-11-23T08:43:23.535Z,97.8
2022-11-23T08:49:30.380Z,97
2022-11-23T08:55:33.132Z,94.7
2022-11-23T09:01:33.972Z,93.5
2022-11-23T09:07:31.129Z,91.6
2022-11-23T09:13:29.503Z,89.4
2022-11-23T09:19:33.736Z,89
2022-11-23T09:25:25.851Z,91.9
2022-11-23T09:31:32.081Z,91.3
2022-11-23T09:37:24.005Z,90.6
2022-11-23T09:43:15.797Z,88.1
2022-11-23T09:49:18.599Z,86.4
2022-11-23T09:55:14.112Z,84.2
2022-11-23T10:01:09.167Z,83.7
2022-11-23T10:07:02.129Z,84
2022-11-23T10:12:53.939Z,83.7
2022-11-23T10:18:47.349Z,83
2022-11-23T10:24:43.084Z,82.7
2022-11-23T10:30:37.575Z,83.4
2022-11-23T10:42:26.010Z,83.3
2022-11-23T10:54:32.489Z,82.2
2022-11-23T11:00:34.467Z,82.3
2022-11-23T11:06:27.101Z,82.9
2022-11-23T11:12:31.044Z,82.2
2022-11-23T11:18:33.494Z,81.9
2022-11-23T11:24:46.606Z,82
2022-11-23T11:30:37.732Z,81.5
2022-11-23T11:36:41.711Z,80.5
2022-11-23T11:42:52.030Z,80.8
2022-11-23T11:48:57.495Z,80.7
2022-11-23T11:55:06.893Z,81.8
2022-11-23T12:01:00.053Z,81.5
2022-11-23T12:06:54.463Z,80.7
2022-11-23T12:12:48.650Z,80
2022-11-23T12:18:39.382Z,78.7
2022-11-23T12:30:25.743Z,78.1
2022-11-23T12:36:20.722Z,77.9
2022-11-23T12:42:36.140Z,78.7
2022-11-23T12:48:42.421Z,78.3
2022-11-23T13:00:46.771Z,77.9
2022-11-23T13:07:28.683Z,77.9
2022-11-23T13:26:30.226Z,76
2022-11-23T13:32:20.942Z,76.6
2022-11-23T13:38:12.153Z,76.6
2022-11-23T13:50:11.854Z,77.4
2022-11-23T13:56:14.094Z,77.2
2022-11-23T14:02:21.788Z,76.8
2022-11-23T14:08:31.418Z,77.7
2022-11-23T14:14:35.589Z,77.9
2022-11-23T14:20:49.343Z,78.3
2022-11-23T14:26:44.490Z,78.8
2022-11-23T14:33:12.423Z,78.8
2022-11-23T14:39:03.316Z,78.9
2022-11-23T14:46:08.485Z,78.6
2022-11-23T15:19:17.766Z,80.1
2022-11-23T15:25:40.323Z,82.2
2022-11-23T15:32:34.076Z,81.9
2022-11-23T15:38:40.950Z,81.1
2022-11-23T16:05:24.071Z,84.7
2022-11-23T16:11:52.051Z,87.2
2022-11-23T16:17:55.098Z,91.2
2022-11-23T16:23:57.791Z,92.9
2022-11-23T16:29:47.754Z,94.4
2022-11-23T16:35:37.694Z,94.1
2022-11-23T16:41:27.351Z,96.9
2022-11-23T16:47:18.381Z,96.3
2022-11-23T16:53:10.848Z,98
2022-11-23T16:59:02.079Z,98.8
2022-11-23T17:04:59.430Z,99.6
2022-11-23T17:10:50.904Z,99.1
2022-11-23T17:16:39.589Z,100
2022-11-23T17:22:29.600Z,100
2022-11-23T17:28:19.464Z,100
2022-11-23T17:34:07.864Z,100
2022-11-23T17:39:58.467Z,100
2022-11-23T17:45:48.897Z,100
2022-11-23T17:51:40.534Z,100
2022-11-23T17:57:30.923Z,100
2022-11-23T18:03:21.817Z,100
2022-11-23T18:09:13.628Z,100
2022-11-23T18:15:04.480Z,100
2022-11-23T18:20:55.099Z,100
2022-11-23T18:26:45.649Z,100
2022-11-23T18:32:36.158Z,100
2022-11-23T18:38:26.629Z,100
2022-11-23T18:44:16.875Z,100
2022-11-23T18:50:08.929Z,100
2022-11-23T18:56:03.964Z,100
2022-11-23T19:01:53.932Z,100
2022-11-23T19:07:45.446Z,100
2022-11-23T19:13:36.483Z,100
2022-11-23T19:19:27.182Z,100
2022-11-23T19:25:18.839Z,100
2022-11-23T19:31:09.112Z,100
2022-11-23T19:37:01.008Z,100
2022-11-23T19:42:51.551Z,100
2022-11-23T19:48:41.956Z,100
2022-11-23T19:54:33.016Z,100
2022-11-23T20:00:23.664Z,100
2022-11-23T20:06:14.897Z,100
2022-11-23T20:12:05.863Z,100
2022-11-23T20:17:56.739Z,100
2022-11-23T20:23:46.988Z,100
2022-11-23T20:29:38.047Z,100
2022-11-23T20:35:28.864Z,100
2022-11-23T20:41:19.370Z,100
2022-11-23T20:47:09.961Z,100
2022-11-23T20:53:01.354Z,100
2022-11-23T20:58:54.726Z,100
2022-11-23T21:04:44.481Z,100
2022-11-23T21:10:33.318Z,100
2022-11-23T21:16:23.973Z,100
2022-11-23T21:22:14.812Z,100
2022-11-23T21:28:05.212Z,100
2022-11-23T21:33:56.862Z,100
2022-11-23T21:39:54.723Z,100
2022-11-23T21:45:45.397Z,100
2022-11-23T21:51:35.666Z,100
2022-11-23T21:57:26.516Z,100
2022-11-23T22:03:15.959Z,100
2022-11-23T22:09:06.260Z,100
2022-11-23T22:14:57.872Z,100
2022-11-23T22:20:47.871Z,100
2022-11-23T22:26:38.420Z,100
2022-11-23T22:32:31.753Z,100
2022-11-23T22:38:22.608Z,100
2022-11-23T22:44:19.234Z,100
2022-11-23T22:50:09.682Z,100
2022-11-23T22:55:59.606Z,100
2022-11-23T23:01:51.254Z,100
2022-11-23T23:07:56.627Z,100
2022-11-23T23:13:48.676Z,100
2022-11-23T23:19:42.480Z,100
2022-11-23T23:25:37.799Z,100
2022-11-23T23:31:32.970Z,100
2022-11-23T23:37:24.141Z,100
2022-11-23T23:43:15.370Z,100
2022-11-23T23:49:05.686Z,100
2022-11-23T23:54:56.259Z,100
